SWR52Y EBBR-LSZH
Flight info
| Callsign | SWR52Y |
|---|---|
| Flight time | 0h 47m |
| Altitude | 31000 |
| Route | ROUSY4M ROUSY DCT GTQ DCT BAMEV DCT BLM BLM3G |
| Aircraft | A320/M-SDE3FGHIRWY/LB1 |
Departure
| Time | 2026-05-07 16:01 |
|---|---|
| Airport | Brussels Airport (EBBR) |
Arrival
| Time | 2026-05-07 16:49 |
|---|---|
| Airport | Zürich Airport (LSZH) |
| Time | Latitude | Longitude | Altitude | Speed | Heading |
|---|---|---|---|---|---|
| 2026-05-07 15:34 | 50.90310 | 4.48689 | 121 ft | 0 kts | 336° |
| 2026-05-07 15:35 | 50.90310 | 4.48685 | 121 ft | 0 kts | 335° |
| 2026-05-07 15:54 | 50.90308 | 4.48687 | 116 ft | 3 kts | 335° |
| 2026-05-07 15:55 | 50.90284 | 4.48705 | 117 ft | 4 kts | 336° |
| 2026-05-07 15:55 | 50.90259 | 4.48721 | 126 ft | 4 kts | 343° |
| 2026-05-07 15:55 | 50.90235 | 4.48726 | 129 ft | 4 kts | 26° |
| 2026-05-07 15:55 | 50.90227 | 4.48717 | 126 ft | 0 kts | 65° |
| 2026-05-07 15:56 | 50.90227 | 4.48719 | 124 ft | 2 kts | 65° |
| 2026-05-07 15:57 | 50.90248 | 4.48787 | 124 ft | 11 kts | 64° |
| 2026-05-07 15:57 | 50.90292 | 4.48936 | 122 ft | 17 kts | 65° |
| 2026-05-07 15:57 | 50.90343 | 4.49115 | 123 ft | 19 kts | 65° |
| 2026-05-07 15:57 | 50.90400 | 4.49313 | 121 ft | 21 kts | 65° |
| 2026-05-07 15:58 | 50.90464 | 4.49530 | 123 ft | 23 kts | 65° |
| 2026-05-07 15:58 | 50.90589 | 4.49648 | 121 ft | 23 kts | 13° |
| 2026-05-07 15:58 | 50.90745 | 4.49709 | 121 ft | 22 kts | 15° |
| 2026-05-07 15:58 | 50.90879 | 4.49765 | 119 ft | 21 kts | 14° |
| 2026-05-07 15:59 | 50.90993 | 4.49873 | 120 ft | 20 kts | 36° |
| 2026-05-07 15:59 | 50.91111 | 4.49939 | 118 ft | 16 kts | 342° |
| 2026-05-07 15:59 | 50.91121 | 4.49824 | 119 ft | 0 kts | 243° |
| 2026-05-07 16:00 | 50.91116 | 4.49809 | 115 ft | 10 kts | 244° |
| 2026-05-07 16:00 | 50.90969 | 4.49300 | 118 ft | 89 kts | 245° |
| 2026-05-07 16:01 | 50.90628 | 4.48115 | 121 ft | 145 kts | 245° |
| 2026-05-07 16:01 | 50.90150 | 4.46467 | 323 ft | 175 kts | 245° |
| 2026-05-07 16:01 | 50.89621 | 4.44653 | 910 ft | 188 kts | 245° |
| 2026-05-07 16:01 | 50.89204 | 4.42631 | 1564 ft | 198 kts | 266° |
| 2026-05-07 16:02 | 50.89571 | 4.40562 | 2220 ft | 207 kts | 304° |
| 2026-05-07 16:02 | 50.90472 | 4.38573 | 2579 ft | 234 kts | 298° |
| 2026-05-07 16:02 | 50.90798 | 4.37079 | 2899 ft | 248 kts | 277° |
| 2026-05-07 16:03 | 50.90668 | 4.35060 | 3406 ft | 257 kts | 249° |
| 2026-05-07 16:03 | 50.89572 | 4.32831 | 4223 ft | 264 kts | 212° |
| 2026-05-07 16:03 | 50.87823 | 4.32009 | 5157 ft | 267 kts | 177° |
| 2026-05-07 16:04 | 50.86077 | 4.32925 | 6099 ft | 270 kts | 143° |
| 2026-05-07 16:04 | 50.84947 | 4.35266 | 6993 ft | 275 kts | 109° |
| 2026-05-07 16:04 | 50.84714 | 4.38278 | 7865 ft | 279 kts | 91° |
| 2026-05-07 16:04 | 50.84415 | 4.41314 | 8710 ft | 283 kts | 115° |
| 2026-05-07 16:05 | 50.83312 | 4.43897 | 9575 ft | 285 kts | 134° |
| 2026-05-07 16:05 | 50.81896 | 4.46115 | 10364 ft | 292 kts | 139° |
| 2026-05-07 16:05 | 50.80334 | 4.48363 | 10660 ft | 315 kts | 139° |
| 2026-05-07 16:05 | 50.78698 | 4.50815 | 11122 ft | 330 kts | 136° |
| 2026-05-07 16:06 | 50.77080 | 4.53448 | 11823 ft | 337 kts | 134° |
| 2026-05-07 16:06 | 50.75501 | 4.56216 | 12585 ft | 342 kts | 132° |
| 2026-05-07 16:06 | 50.73942 | 4.59087 | 13348 ft | 346 kts | 131° |
| 2026-05-07 16:06 | 50.72411 | 4.61986 | 14067 ft | 351 kts | 130° |
| 2026-05-07 16:07 | 50.70830 | 4.65004 | 14740 ft | 355 kts | 130° |
| 2026-05-07 16:07 | 50.69265 | 4.67979 | 15391 ft | 359 kts | 131° |
| 2026-05-07 16:07 | 50.67635 | 4.71054 | 16052 ft | 363 kts | 131° |
| 2026-05-07 16:07 | 50.66026 | 4.74077 | 16696 ft | 367 kts | 131° |
| 2026-05-07 16:08 | 50.64374 | 4.77169 | 17346 ft | 370 kts | 131° |
| 2026-05-07 16:08 | 50.62705 | 4.80287 | 17984 ft | 375 kts | 131° |
| 2026-05-07 16:08 | 50.61015 | 4.83442 | 18590 ft | 379 kts | 131° |
| 2026-05-07 16:08 | 50.59282 | 4.86585 | 19144 ft | 381 kts | 137° |
| 2026-05-07 16:09 | 50.57211 | 4.89197 | 19707 ft | 383 kts | 145° |
| 2026-05-07 16:09 | 50.55050 | 4.91674 | 20300 ft | 386 kts | 146° |
| 2026-05-07 16:09 | 50.52873 | 4.94165 | 20872 ft | 389 kts | 146° |
| 2026-05-07 16:09 | 50.50675 | 4.96672 | 21452 ft | 392 kts | 146° |
| 2026-05-07 16:10 | 50.48460 | 4.99201 | 22027 ft | 395 kts | 146° |
| 2026-05-07 16:10 | 50.46230 | 5.01750 | 22603 ft | 398 kts | 146° |
| 2026-05-07 16:10 | 50.43982 | 5.04314 | 23169 ft | 401 kts | 146° |
| 2026-05-07 16:10 | 50.41718 | 5.06895 | 23703 ft | 404 kts | 146° |
| 2026-05-07 16:11 | 50.39437 | 5.09491 | 24139 ft | 407 kts | 146° |
| 2026-05-07 16:11 | 50.37128 | 5.12114 | 24570 ft | 410 kts | 146° |
| 2026-05-07 16:11 | 50.34806 | 5.14750 | 24999 ft | 413 kts | 146° |
| 2026-05-07 16:11 | 50.32473 | 5.17401 | 25417 ft | 416 kts | 146° |
| 2026-05-07 16:12 | 50.30127 | 5.20064 | 25823 ft | 418 kts | 146° |
| 2026-05-07 16:12 | 50.27764 | 5.22740 | 26225 ft | 421 kts | 146° |
| 2026-05-07 16:12 | 50.25388 | 5.25431 | 26616 ft | 423 kts | 146° |
| 2026-05-07 16:12 | 50.22991 | 5.28144 | 27009 ft | 426 kts | 146° |
| 2026-05-07 16:13 | 50.20589 | 5.30854 | 27391 ft | 428 kts | 146° |
| 2026-05-07 16:13 | 50.18163 | 5.33582 | 27777 ft | 430 kts | 146° |
| 2026-05-07 16:13 | 50.15753 | 5.36287 | 28149 ft | 433 kts | 146° |
| 2026-05-07 16:13 | 50.13298 | 5.39037 | 28522 ft | 435 kts | 146° |
| 2026-05-07 16:14 | 50.10838 | 5.41793 | 28896 ft | 438 kts | 146° |
| 2026-05-07 16:14 | 50.08359 | 5.44574 | 29250 ft | 440 kts | 146° |
| 2026-05-07 16:14 | 50.05870 | 5.47363 | 29586 ft | 442 kts | 146° |
| 2026-05-07 16:14 | 50.03368 | 5.50164 | 29892 ft | 445 kts | 146° |
| 2026-05-07 16:15 | 50.00844 | 5.52982 | 30177 ft | 447 kts | 146° |
| 2026-05-07 16:15 | 49.98305 | 5.55806 | 30441 ft | 450 kts | 146° |
| 2026-05-07 16:15 | 49.95756 | 5.58640 | 30690 ft | 452 kts | 146° |
| 2026-05-07 16:15 | 49.93196 | 5.61484 | 30940 ft | 453 kts | 146° |
| 2026-05-07 16:16 | 49.90630 | 5.64330 | 31034 ft | 450 kts | 146° |
| 2026-05-07 16:16 | 49.88126 | 5.67109 | 31055 ft | 435 kts | 146° |
| 2026-05-07 16:16 | 49.85689 | 5.69817 | 31053 ft | 429 kts | 146° |
| 2026-05-07 16:17 | 49.80861 | 5.75170 | 31056 ft | 426 kts | 146° |
| 2026-05-07 16:17 | 49.76025 | 5.80496 | 31057 ft | 426 kts | 146° |
| 2026-05-07 16:18 | 49.71220 | 5.85761 | 31051 ft | 426 kts | 146° |
| 2026-05-07 16:18 | 49.66391 | 5.91055 | 31045 ft | 426 kts | 146° |
| 2026-05-07 16:19 | 49.61497 | 5.96408 | 31060 ft | 440 kts | 146° |
| 2026-05-07 16:19 | 49.56394 | 6.01977 | 31059 ft | 458 kts | 146° |
| 2026-05-07 16:20 | 49.51113 | 6.07718 | 31055 ft | 470 kts | 146° |
| 2026-05-07 16:20 | 49.45783 | 6.13608 | 31054 ft | 473 kts | 144° |
| 2026-05-07 16:21 | 49.40639 | 6.19944 | 31052 ft | 474 kts | 142° |
| 2026-05-07 16:21 | 49.35580 | 6.26433 | 31053 ft | 474 kts | 142° |
| 2026-05-07 16:22 | 49.30471 | 6.32844 | 31045 ft | 474 kts | 142° |
| 2026-05-07 16:22 | 49.25319 | 6.39171 | 31042 ft | 474 kts | 143° |
| 2026-05-07 16:23 | 49.20185 | 6.45437 | 31031 ft | 474 kts | 143° |
| 2026-05-07 16:23 | 49.15028 | 6.51726 | 31045 ft | 474 kts | 143° |
| 2026-05-07 16:24 | 49.10171 | 6.57661 | 31032 ft | 474 kts | 143° |
| 2026-05-07 16:24 | 49.05010 | 6.63950 | 31034 ft | 475 kts | 143° |
| 2026-05-07 16:25 | 49.00171 | 6.69778 | 31019 ft | 475 kts | 146° |
| 2026-05-07 16:25 | 48.94304 | 6.74233 | 31021 ft | 472 kts | 161° |
| 2026-05-07 16:26 | 48.88174 | 6.77857 | 31023 ft | 473 kts | 160° |
| 2026-05-07 16:26 | 48.82049 | 6.81496 | 31024 ft | 473 kts | 161° |
| 2026-05-07 16:27 | 48.75909 | 6.85124 | 31033 ft | 473 kts | 161° |
| 2026-05-07 16:27 | 48.69766 | 6.88739 | 31035 ft | 473 kts | 161° |
| 2026-05-07 16:28 | 48.63641 | 6.92332 | 31044 ft | 461 kts | 161° |
| 2026-05-07 16:28 | 48.60757 | 6.94022 | 31048 ft | 442 kts | 161° |
| 2026-05-07 16:28 | 48.57927 | 6.95675 | 31054 ft | 433 kts | 161° |
| 2026-05-07 16:29 | 48.52330 | 6.98921 | 31049 ft | 430 kts | 161° |
| 2026-05-07 16:29 | 48.46756 | 7.02156 | 31052 ft | 429 kts | 161° |
| 2026-05-07 16:30 | 48.41185 | 7.05402 | 31053 ft | 430 kts | 161° |
| 2026-05-07 16:30 | 48.35600 | 7.08643 | 31052 ft | 430 kts | 161° |
| 2026-05-07 16:31 | 48.30019 | 7.11882 | 31048 ft | 430 kts | 161° |
| 2026-05-07 16:31 | 48.24441 | 7.15094 | 31046 ft | 429 kts | 161° |
| 2026-05-07 16:32 | 48.18846 | 7.18318 | 31048 ft | 435 kts | 161° |
| 2026-05-07 16:32 | 48.15996 | 7.19958 | 30429 ft | 442 kts | 161° |
| 2026-05-07 16:32 | 48.13116 | 7.21612 | 29526 ft | 445 kts | 161° |
| 2026-05-07 16:32 | 48.10243 | 7.23263 | 28954 ft | 439 kts | 161° |
| 2026-05-07 16:33 | 48.07413 | 7.24889 | 28417 ft | 432 kts | 161° |
| 2026-05-07 16:33 | 48.04621 | 7.26491 | 27876 ft | 426 kts | 161° |
| 2026-05-07 16:33 | 48.01911 | 7.28043 | 27391 ft | 420 kts | 161° |
| 2026-05-07 16:33 | 47.99196 | 7.29597 | 26859 ft | 415 kts | 161° |
| 2026-05-07 16:34 | 47.96520 | 7.31122 | 26394 ft | 409 kts | 162° |
| 2026-05-07 16:34 | 47.93874 | 7.32625 | 25914 ft | 404 kts | 162° |
| 2026-05-07 16:34 | 47.91264 | 7.34108 | 25442 ft | 400 kts | 161° |
| 2026-05-07 16:34 | 47.88678 | 7.35577 | 24966 ft | 395 kts | 162° |
| 2026-05-07 16:35 | 47.86118 | 7.37029 | 24489 ft | 392 kts | 161° |
| 2026-05-07 16:35 | 47.83583 | 7.38468 | 24015 ft | 389 kts | 161° |
| 2026-05-07 16:35 | 47.81063 | 7.39900 | 23506 ft | 386 kts | 161° |
| 2026-05-07 16:35 | 47.78564 | 7.41320 | 22977 ft | 383 kts | 161° |
| 2026-05-07 16:36 | 47.76077 | 7.42732 | 22491 ft | 379 kts | 161° |
| 2026-05-07 16:36 | 47.74451 | 7.43653 | 22170 ft | 377 kts | 161° |
| 2026-05-07 16:36 | 47.72014 | 7.45030 | 21695 ft | 373 kts | 161° |
| 2026-05-07 16:36 | 47.69594 | 7.46393 | 21221 ft | 371 kts | 161° |
| 2026-05-07 16:37 | 47.67206 | 7.47793 | 20739 ft | 369 kts | 156° |
| 2026-05-07 16:37 | 47.65029 | 7.49804 | 20260 ft | 370 kts | 143° |
| 2026-05-07 16:37 | 47.63233 | 7.52534 | 19789 ft | 371 kts | 128° |
| 2026-05-07 16:37 | 47.61632 | 7.56987 | 19166 ft | 371 kts | 110° |
| 2026-05-07 16:38 | 47.61068 | 7.59428 | 18857 ft | 370 kts | 110° |
| 2026-05-07 16:38 | 47.60234 | 7.63031 | 18392 ft | 369 kts | 110° |
| 2026-05-07 16:38 | 47.59396 | 7.66618 | 17887 ft | 368 kts | 110° |
| 2026-05-07 16:38 | 47.58558 | 7.70181 | 17424 ft | 365 kts | 110° |
| 2026-05-07 16:39 | 47.57723 | 7.73720 | 16968 ft | 363 kts | 111° |
| 2026-05-07 16:39 | 47.56893 | 7.77232 | 16521 ft | 360 kts | 111° |
| 2026-05-07 16:39 | 47.56069 | 7.80716 | 16077 ft | 358 kts | 111° |
| 2026-05-07 16:39 | 47.55424 | 7.84282 | 15263 ft | 363 kts | 97° |
| 2026-05-07 16:40 | 47.55568 | 7.88000 | 14371 ft | 363 kts | 76° |
| 2026-05-07 16:40 | 47.56361 | 7.91506 | 13555 ft | 358 kts | 71° |
| 2026-05-07 16:40 | 47.57199 | 7.94947 | 12662 ft | 354 kts | 70° |
| 2026-05-07 16:40 | 47.58030 | 7.98354 | 11804 ft | 349 kts | 70° |
| 2026-05-07 16:41 | 47.58840 | 8.01685 | 11324 ft | 334 kts | 70° |
| 2026-05-07 16:41 | 47.59591 | 8.04778 | 11001 ft | 316 kts | 70° |
| 2026-05-07 16:41 | 47.60337 | 8.07858 | 10183 ft | 318 kts | 70° |
| 2026-05-07 16:41 | 47.61084 | 8.10948 | 9307 ft | 319 kts | 70° |
| 2026-05-07 16:42 | 47.61913 | 8.13999 | 8672 ft | 320 kts | 60° |
| 2026-05-07 16:42 | 47.63240 | 8.16614 | 8236 ft | 317 kts | 46° |
| 2026-05-07 16:42 | 47.64739 | 8.18995 | 7793 ft | 314 kts | 45° |
| 2026-05-07 16:42 | 47.66226 | 8.21354 | 7361 ft | 312 kts | 46° |
| 2026-05-07 16:43 | 47.67396 | 8.24039 | 6891 ft | 312 kts | 72° |
| 2026-05-07 16:43 | 47.67532 | 8.27203 | 6471 ft | 308 kts | 103° |
| 2026-05-07 16:43 | 47.66568 | 8.29939 | 6161 ft | 296 kts | 136° |
| 2026-05-07 16:43 | 47.64872 | 8.31503 | 5802 ft | 285 kts | 162° |
| 2026-05-07 16:44 | 47.63097 | 8.32668 | 5440 ft | 271 kts | 144° |
| 2026-05-07 16:44 | 47.61858 | 8.34641 | 5101 ft | 254 kts | 130° |
| 2026-05-07 16:44 | 47.60694 | 8.36493 | 4778 ft | 238 kts | 136° |
| 2026-05-07 16:44 | 47.59509 | 8.38134 | 4465 ft | 229 kts | 138° |
| 2026-05-07 16:45 | 47.58358 | 8.39701 | 4144 ft | 220 kts | 138° |
| 2026-05-07 16:45 | 47.57267 | 8.41196 | 3880 ft | 207 kts | 138° |
| 2026-05-07 16:45 | 47.56245 | 8.42600 | 3593 ft | 193 kts | 137° |
| 2026-05-07 16:45 | 47.55310 | 8.43882 | 3365 ft | 177 kts | 138° |
| 2026-05-07 16:46 | 47.54450 | 8.45061 | 3130 ft | 165 kts | 138° |
| 2026-05-07 16:46 | 47.53641 | 8.46173 | 2904 ft | 153 kts | 137° |
| 2026-05-07 16:46 | 47.52888 | 8.47226 | 2673 ft | 147 kts | 135° |
| 2026-05-07 16:46 | 47.52165 | 8.48293 | 2539 ft | 147 kts | 136° |
| 2026-05-07 16:47 | 47.51409 | 8.49318 | 2331 ft | 147 kts | 139° |
| 2026-05-07 16:47 | 47.50644 | 8.50324 | 2104 ft | 146 kts | 137° |
| 2026-05-07 16:47 | 47.49887 | 8.51314 | 1924 ft | 146 kts | 136° |
| 2026-05-07 16:47 | 47.49146 | 8.52341 | 1725 ft | 146 kts | 134° |
| 2026-05-07 16:48 | 47.48400 | 8.53356 | 1518 ft | 145 kts | 135° |
| 2026-05-07 16:48 | 47.47677 | 8.54338 | 1397 ft | 131 kts | 136° |
| 2026-05-07 16:48 | 47.47112 | 8.55115 | 1386 ft | 91 kts | 137° |
| 2026-05-07 16:48 | 47.46711 | 8.55657 | 1401 ft | 54 kts | 138° |
| 2026-05-07 16:49 | 47.46469 | 8.55915 | 1405 ft | 27 kts | 160° |
| 2026-05-07 16:49 | 47.46320 | 8.55973 | 1403 ft | 20 kts | 165° |
| 2026-05-07 16:49 | 47.46185 | 8.56004 | 1406 ft | 19 kts | 182° |
| 2026-05-07 16:49 | 47.46055 | 8.55987 | 1407 ft | 19 kts | 185° |
| 2026-05-07 16:50 | 47.45925 | 8.55950 | 1409 ft | 19 kts | 201° |
| 2026-05-07 16:50 | 47.45830 | 8.55901 | 1410 ft | 11 kts | 201° |
| 2026-05-07 16:50 | 47.45745 | 8.55871 | 1409 ft | 16 kts | 185° |
| 2026-05-07 16:50 | 47.45645 | 8.55858 | 1408 ft | 13 kts | 185° |
| 2026-05-07 16:51 | 47.45575 | 8.55905 | 1412 ft | 13 kts | 132° |
| 2026-05-07 16:51 | 47.45487 | 8.55955 | 1413 ft | 14 kts | 179° |
| 2026-05-07 16:51 | 47.45419 | 8.55947 | 1407 ft | 5 kts | 185° |
| 2026-05-07 16:51 | 47.45411 | 8.55946 | 1407 ft | 1 kts | 185° |
| 2026-05-07 16:52 | 47.45409 | 8.55946 | 1407 ft | 0 kts | 185° |